sensor_id;sensor_type;location;lat;lon;timestamp;pressure;altitude;pressure_sealevel;temperature;humidity
44457;BME280;30159;49.316;8.558;2023-03-22T00:00:35;100224.50;;;10.39;100.00
44457;BME280;30159;49.316;8.558;2023-03-22T00:03:03;100207.00;;;10.36;100.00
44457;BME280;30159;49.316;8.558;2023-03-22T00:05:30;100134.31;;;9.91;100.00
44457;BME280;30159;49.316;8.558;2023-03-22T00:07:56;100218.53;;;10.42;100.00
44457;BME280;30159;49.316;8.558;2023-03-22T00:10:23;100220.69;;;10.45;100.00
44457;BME280;30159;49.316;8.558;2023-03-22T00:12:49;100139.66;;;9.97;100.00
44457;BME280;30159;49.316;8.558;2023-03-22T00:15:17;100217.91;;;10.55;100.00
44457;BME280;30159;49.316;8.558;2023-03-22T00:17:44;100166.09;;;10.29;100.00
44457;BME280;30159;49.316;8.558;2023-03-22T00:20:11;100220.78;;;10.64;100.00
44457;BME280;30159;49.316;8.558;2023-03-22T00:22:38;100218.38;;;10.62;100.00
44457;BME280;30159;49.316;8.558;2023-03-22T00:25:05;100223.50;;;10.64;100.00
44457;BME280;30159;49.316;8.558;2023-03-22T00:27:31;100151.31;;;10.21;100.00
44457;BME280;30159;49.316;8.558;2023-03-22T00:29:58;100215.06;;;10.70;100.00
44457;BME280;30159;49.316;8.558;2023-03-22T00:32:26;100203.50;;;10.65;100.00
44457;BME280;30159;49.316;8.558;2023-03-22T00:34:53;100205.09;;;10.71;100.00
44457;BME280;30159;49.316;8.558;2023-03-22T00:37:19;100208.00;;;10.74;100.00
44457;BME280;30159;49.316;8.558;2023-03-22T00:39:46;100197.22;;;10.74;100.00
44457;BME280;30159;49.316;8.558;2023-03-22T00:42:12;100206.66;;;10.77;100.00
44457;BME280;30159;49.316;8.558;2023-03-22T00:44:39;100198.84;;;10.75;100.00
44457;BME280;30159;49.316;8.558;2023-03-22T00:47:05;100168.56;;;10.54;100.00
44457;BME280;30159;49.316;8.558;2023-03-22T00:49:33;100190.28;;;10.68;100.00
44457;BME280;30159;49.316;8.558;2023-03-22T00:52:01;100186.81;;;10.63;100.00
44457;BME280;30159;49.316;8.558;2023-03-22T00:54:28;100175.31;;;10.52;100.00
44457;BME280;30159;49.316;8.558;2023-03-22T00:56:54;100171.00;;;10.51;100.00
44457;BME280;30159;49.316;8.558;2023-03-22T00:59:21;100172.53;;;10.62;100.00
44457;BME280;30159;49.316;8.558;2023-03-22T01:01:48;100137.25;;;10.29;100.00
44457;BME280;30159;49.316;8.558;2023-03-22T01:04:14;100167.97;;;10.58;100.00
44457;BME280;30159;49.316;8.558;2023-03-22T01:06:43;100166.72;;;10.50;100.00
44457;BME280;30159;49.316;8.558;2023-03-22T01:09:11;100170.97;;;10.56;100.00
44457;BME280;30159;49.316;8.558;2023-03-22T01:11:39;100160.09;;;10.66;100.00
44457;BME280;30159;49.316;8.558;2023-03-22T01:14:06;100164.44;;;10.62;100.00
44457;BME280;30159;49.316;8.558;2023-03-22T01:16:34;100168.22;;;10.61;100.00
44457;BME280;30159;49.316;8.558;2023-03-22T01:19:00;100155.81;;;10.60;100.00
44457;BME280;30159;49.316;8.558;2023-03-22T01:21:27;100153.44;;;10.59;100.00
44457;BME280;30159;49.316;8.558;2023-03-22T01:23:55;100151.25;;;10.61;100.00
44457;BME280;30159;49.316;8.558;2023-03-22T01:26:22;100139.97;;;10.53;100.00
44457;BME280;30159;49.316;8.558;2023-03-22T01:28:48;100158.56;;;10.55;100.00
44457;BME280;30159;49.316;8.558;2023-03-22T01:31:15;100151.59;;;10.54;100.00
44457;BME280;30159;49.316;8.558;2023-03-22T01:33:41;100144.34;;;10.49;100.00
44457;BME280;30159;49.316;8.558;2023-03-22T01:36:08;100149.97;;;10.53;100.00
44457;BME280;30159;49.316;8.558;2023-03-22T01:38:35;100147.56;;;10.51;100.00
44457;BME280;30159;49.316;8.558;2023-03-22T01:41:03;100144.09;;;10.46;100.00
44457;BME280;30159;49.316;8.558;2023-03-22T01:43:30;100159.16;;;10.52;100.00
44457;BME280;30159;49.316;8.558;2023-03-22T01:45:57;100157.78;;;10.54;100.00
44457;BME280;30159;49.316;8.558;2023-03-22T01:48:25;100151.00;;;10.57;100.00
44457;BME280;30159;49.316;8.558;2023-03-22T01:50:59;100150.41;;;10.60;100.00
44457;BME280;30159;49.316;8.558;2023-03-22T01:53:29;100150.94;;;10.62;100.00
44457;BME280;30159;49.316;8.558;2023-03-22T01:55:57;100144.47;;;10.63;100.00
44457;BME280;30159;49.316;8.558;2023-03-22T01:58:25;100138.50;;;10.66;100.00
44457;BME280;30159;49.316;8.558;2023-03-22T02:00:52;100143.91;;;10.66;100.00
44457;BME280;30159;49.316;8.558;2023-03-22T02:03:25;100136.38;;;10.63;100.00
44457;BME280;30159;49.316;8.558;2023-03-22T02:05:56;100123.50;;;10.55;100.00
44457;BME280;30159;49.316;8.558;2023-03-22T02:08:22;100138.75;;;10.70;100.00
44457;BME280;30159;49.316;8.558;2023-03-22T02:10:50;100139.53;;;10.70;100.00
44457;BME280;30159;49.316;8.558;2023-03-22T02:13:33;100102.53;;;10.52;100.00
44457;BME280;30159;49.316;8.558;2023-03-22T02:16:12;100128.69;;;10.75;100.00
44457;BME280;30159;49.316;8.558;2023-03-22T02:18:55;100133.75;;;10.82;100.00
44457;BME280;30159;49.316;8.558;2023-03-22T02:21:46;100090.81;;;10.62;100.00
44457;BME280;30159;49.316;8.558;2023-03-22T02:24:52;100127.94;;;10.94;100.00
44457;BME280;30159;49.316;8.558;2023-03-22T02:27:39;100112.69;;;10.84;100.00
44457;BME280;30159;49.316;8.558;2023-03-22T02:30:29;100119.91;;;10.89;100.00
44457;BME280;30159;49.316;8.558;2023-03-22T02:33:28;100131.88;;;11.02;100.00
44457;BME280;30159;49.316;8.558;2023-03-22T02:36:13;100116.56;;;10.97;100.00
44457;BME280;30159;49.316;8.558;2023-03-22T02:39:20;100083.19;;;10.69;100.00
44457;BME280;30159;49.316;8.558;2023-03-22T02:42:03;100130.06;;;10.97;100.00
44457;BME280;30159;49.316;8.558;2023-03-22T02:44:40;100130.13;;;10.92;100.00
44457;BME280;30159;49.316;8.558;2023-03-22T02:47:14;100122.53;;;10.94;100.00
44457;BME280;30159;49.316;8.558;2023-03-22T02:49:51;100124.13;;;10.95;100.00
44457;BME280;30159;49.316;8.558;2023-03-22T02:52:24;100084.28;;;10.68;100.00
44457;BME280;30159;49.316;8.558;2023-03-22T02:55:00;100102.09;;;10.88;100.00
44457;BME280;30159;49.316;8.558;2023-03-22T02:57:32;100106.94;;;10.91;100.00
44457;BME280;30159;49.316;8.558;2023-03-22T03:00:05;100121.69;;;10.99;100.00
44457;BME280;30159;49.316;8.558;2023-03-22T03:02:35;100101.06;;;10.84;100.00
44457;BME280;30159;49.316;8.558;2023-03-22T03:05:04;100094.75;;;10.69;100.00
44457;BME280;30159;49.316;8.558;2023-03-22T03:07:32;100111.78;;;10.70;100.00
44457;BME280;30159;49.316;8.558;2023-03-22T03:10:01;100106.47;;;10.60;100.00
44457;BME280;30159;49.316;8.558;2023-03-22T03:12:28;100104.69;;;10.50;100.00
44457;BME280;30159;49.316;8.558;2023-03-22T03:14:55;100100.78;;;10.37;100.00
44457;BME280;30159;49.316;8.558;2023-03-22T03:17:35;100100.31;;;10.25;100.00
44457;BME280;30159;49.316;8.558;2023-03-22T03:20:20;100107.16;;;10.17;100.00
44457;BME280;30159;49.316;8.558;2023-03-22T03:23:04;100097.44;;;10.16;100.00
44457;BME280;30159;49.316;8.558;2023-03-22T03:25:46;100112.34;;;10.08;100.00
44457;BME280;30159;49.316;8.558;2023-03-22T03:28:23;100112.91;;;10.05;100.00
44457;BME280;30159;49.316;8.558;2023-03-22T03:30:59;100123.16;;;10.03;100.00
44457;BME280;30159;49.316;8.558;2023-03-22T03:33:32;100111.53;;;10.08;100.00
44457;BME280;30159;49.316;8.558;2023-03-22T03:36:03;100037.75;;;9.69;100.00
44457;BME280;30159;49.316;8.558;2023-03-22T03:38:32;100104.91;;;10.24;100.00
44457;BME280;30159;49.316;8.558;2023-03-22T03:41:04;100106.78;;;10.29;100.00
44457;BME280;30159;49.316;8.558;2023-03-22T03:43:32;100105.41;;;10.31;100.00
44457;BME280;30159;49.316;8.558;2023-03-22T03:45:59;100095.75;;;10.30;100.00
44457;BME280;30159;49.316;8.558;2023-03-22T03:48:30;100107.38;;;10.50;100.00
44457;BME280;30159;49.316;8.558;2023-03-22T03:50:59;100058.69;;;10.12;100.00
44457;BME280;30159;49.316;8.558;2023-03-22T03:53:26;100111.66;;;10.56;100.00
44457;BME280;30159;49.316;8.558;2023-03-22T03:55:53;100118.63;;;10.57;100.00
44457;BME280;30159;49.316;8.558;2023-03-22T03:58:21;100118.69;;;10.52;100.00
44457;BME280;30159;49.316;8.558;2023-03-22T04:00:48;100105.88;;;10.39;100.00
44457;BME280;30159;49.316;8.558;2023-03-22T04:03:14;100081.84;;;10.13;100.00
44457;BME280;30159;49.316;8.558;2023-03-22T04:05:42;100108.56;;;10.09;100.00
44457;BME280;30159;49.316;8.558;2023-03-22T04:08:09;100111.09;;;9.96;100.00
44457;BME280;30159;49.316;8.558;2023-03-22T04:10:35;100102.56;;;9.88;100.00
44457;BME280;30159;49.316;8.558;2023-03-22T04:13:02;100102.09;;;9.76;100.00
44457;BME280;30159;49.316;8.558;2023-03-22T04:15:30;100103.66;;;9.82;100.00
44457;BME280;30159;49.316;8.558;2023-03-22T04:17:57;100099.22;;;9.97;100.00
44457;BME280;30159;49.316;8.558;2023-03-22T04:20:23;100029.22;;;9.62;100.00
44457;BME280;30159;49.316;8.558;2023-03-22T04:22:51;100090.72;;;10.13;100.00
44457;BME280;30159;49.316;8.558;2023-03-22T04:25:18;100090.13;;;10.22;100.00
44457;BME280;30159;49.316;8.558;2023-03-22T04:27:47;100087.69;;;10.20;100.00
44457;BME280;30159;49.316;8.558;2023-03-22T04:30:16;100086.06;;;10.24;100.00
44457;BME280;30159;49.316;8.558;2023-03-22T04:32:46;100083.63;;;10.23;100.00
44457;BME280;30159;49.316;8.558;2023-03-22T04:35:13;100077.81;;;10.10;100.00
44457;BME280;30159;49.316;8.558;2023-03-22T04:37:39;100082.41;;;10.10;100.00
44457;BME280;30159;49.316;8.558;2023-03-22T04:40:08;99985.19;;;9.48;100.00
44457;BME280;30159;49.316;8.558;2023-03-22T04:42:40;100079.78;;;10.05;100.00
44457;BME280;30159;49.316;8.558;2023-03-22T04:45:08;100079.78;;;10.05;100.00
44457;BME280;30159;49.316;8.558;2023-03-22T04:47:34;100069.84;;;10.00;100.00
44457;BME280;30159;49.316;8.558;2023-03-22T04:50:03;99991.97;;;9.40;100.00
44457;BME280;30159;49.316;8.558;2023-03-22T04:52:30;100077.47;;;9.88;100.00
44457;BME280;30159;49.316;8.558;2023-03-22T04:54:56;100080.50;;;9.81;100.00
44457;BME280;30159;49.316;8.558;2023-03-22T04:57:23;100084.81;;;9.82;100.00
44457;BME280;30159;49.316;8.558;2023-03-22T04:59:50;100088.34;;;9.78;100.00
44457;BME280;30159;49.316;8.558;2023-03-22T05:02:16;100081.91;;;9.74;100.00
44457;BME280;30159;49.316;8.558;2023-03-22T05:04:43;100082.75;;;9.69;100.00
44457;BME280;30159;49.316;8.558;2023-03-22T05:07:11;100073.88;;;9.68;100.00
44457;BME280;30159;49.316;8.558;2023-03-22T05:09:37;100068.53;;;9.63;100.00
44457;BME280;30159;49.316;8.558;2023-03-22T05:12:04;100081.19;;;9.63;100.00
44457;BME280;30159;49.316;8.558;2023-03-22T05:14:31;100077.50;;;9.54;100.00
44457;BME280;30159;49.316;8.558;2023-03-22T05:16:57;100083.94;;;9.53;100.00
44457;BME280;30159;49.316;8.558;2023-03-22T05:19:24;100066.81;;;9.38;100.00
44457;BME280;30159;49.316;8.558;2023-03-22T05:21:51;100085.63;;;9.43;100.00
44457;BME280;30159;49.316;8.558;2023-03-22T05:24:23;100089.41;;;9.42;100.00
44457;BME280;30159;49.316;8.558;2023-03-22T05:26:50;100085.13;;;9.36;100.00
44457;BME280;30159;49.316;8.558;2023-03-22T05:29:18;100080.06;;;9.29;100.00
44457;BME280;30159;49.316;8.558;2023-03-22T05:31:45;100088.97;;;9.25;100.00
44457;BME280;30159;49.316;8.558;2023-03-22T05:34:12;100086.56;;;9.23;100.00
44457;BME280;30159;49.316;8.558;2023-03-22T05:36:39;100070.72;;;9.17;100.00
44457;BME280;30159;49.316;8.558;2023-03-22T05:39:05;100088.97;;;9.30;100.00
44457;BME280;30159;49.316;8.558;2023-03-22T05:41:33;100086.25;;;9.30;100.00
44457;BME280;30159;49.316;8.558;2023-03-22T05:44:00;100001.78;;;8.76;100.00
44457;BME280;30159;49.316;8.558;2023-03-22T05:46:26;100092.38;;;9.41;100.00
44457;BME280;30159;49.316;8.558;2023-03-22T05:48:53;100087.25;;;9.44;100.00
44457;BME280;30159;49.316;8.558;2023-03-22T05:51:20;100094.19;;;9.56;100.00
44457;BME280;30159;49.316;8.558;2023-03-22T05:53:50;100098.41;;;9.62;100.00
44457;BME280;30159;49.316;8.558;2023-03-22T05:56:17;100068.59;;;9.53;100.00
44457;BME280;30159;49.316;8.558;2023-03-22T05:58:49;100085.88;;;9.81;100.00
44457;BME280;30159;49.316;8.558;2023-03-22T06:01:16;100103.34;;;10.18;100.00
44457;BME280;30159;49.316;8.558;2023-03-22T06:03:44;100103.44;;;10.42;100.00
44457;BME280;30159;49.316;8.558;2023-03-22T06:06:12;100107.56;;;10.83;100.00
44457;BME280;30159;49.316;8.558;2023-03-22T06:08:39;100104.88;;;11.45;100.00
44457;BME280;30159;49.316;8.558;2023-03-22T06:11:06;100103.94;;;12.06;98.25
44457;BME280;30159;49.316;8.558;2023-03-22T06:13:33;100103.94;;;12.80;93.27
44457;BME280;30159;49.316;8.558;2023-03-22T06:16:02;100101.94;;;13.73;87.14
44457;BME280;30159;49.316;8.558;2023-03-22T06:18:30;100079.00;;;14.55;80.61
44457;BME280;30159;49.316;8.558;2023-03-22T06:20:58;100116.28;;;15.55;76.42
44457;BME280;30159;49.316;8.558;2023-03-22T06:23:24;100105.84;;;16.18;73.03
44457;BME280;30159;49.316;8.558;2023-03-22T06:25:51;100101.84;;;16.63;71.33
44457;BME280;30159;49.316;8.558;2023-03-22T06:28:17;100108.59;;;17.25;69.29
44457;BME280;30159;49.316;8.558;2023-03-22T06:30:44;100104.22;;;18.20;66.36
44457;BME280;30159;49.316;8.558;2023-03-22T06:33:12;100101.09;;;19.04;63.74
44457;BME280;30159;49.316;8.558;2023-03-22T06:35:38;100103.88;;;19.45;62.11
44457;BME280;30159;49.316;8.558;2023-03-22T06:38:05;100063.41;;;18.36;62.13
44457;BME280;30159;49.316;8.558;2023-03-22T06:40:31;100099.06;;;17.52;65.43
44457;BME280;30159;49.316;8.558;2023-03-22T06:42:59;100103.16;;;17.79;65.16
44457;BME280;30159;49.316;8.558;2023-03-22T06:45:26;100095.84;;;18.25;64.09
44457;BME280;30159;49.316;8.558;2023-03-22T06:47:57;100100.84;;;19.34;61.55
44457;BME280;30159;49.316;8.558;2023-03-22T06:50:25;100098.16;;;20.66;58.74
44457;BME280;30159;49.316;8.558;2023-03-22T06:52:52;100101.06;;;21.24;56.85
44457;BME280;30159;49.316;8.558;2023-03-22T06:55:19;100093.97;;;22.21;54.70
44457;BME280;30159;49.316;8.558;2023-03-22T06:57:45;100100.97;;;23.14;53.58
44457;BME280;30159;49.316;8.558;2023-03-22T07:00:14;100104.31;;;23.57;52.41
44457;BME280;30159;49.316;8.558;2023-03-22T07:02:41;100079.84;;;23.86;52.08
44457;BME280;30159;49.316;8.558;2023-03-22T07:05:08;100105.63;;;23.70;51.33
44457;BME280;30159;49.316;8.558;2023-03-22T07:07:36;100043.69;;;23.23;52.40
44457;BME280;30159;49.316;8.558;2023-03-22T07:10:03;100109.28;;;24.56;50.58
44457;BME280;30159;49.316;8.558;2023-03-22T07:12:32;100078.44;;;24.03;50.37
44457;BME280;30159;49.316;8.558;2023-03-22T07:14:58;100096.88;;;24.84;50.50
44457;BME280;30159;49.316;8.558;2023-03-22T07:17:25;100102.13;;;25.00;49.56
44457;BME280;30159;49.316;8.558;2023-03-22T07:19:51;100049.84;;;23.77;50.87
44457;BME280;30159;49.316;8.558;2023-03-22T07:22:18;100100.72;;;22.96;52.43
44457;BME280;30159;49.316;8.558;2023-03-22T07:24:47;100112.13;;;22.25;52.85
44457;BME280;30159;49.316;8.558;2023-03-22T07:27:14;100104.19;;;19.55;59.54
44457;BME280;30159;49.316;8.558;2023-03-22T07:29:40;100106.91;;;19.68;59.60
44457;BME280;30159;49.316;8.558;2023-03-22T07:32:07;100074.38;;;20.70;56.54
44457;BME280;30159;49.316;8.558;2023-03-22T07:37:00;100107.72;;;19.68;58.18
44457;BME280;30159;49.316;8.558;2023-03-22T07:39:27;100107.44;;;17.68;63.62
44457;BME280;30159;49.316;8.558;2023-03-22T07:41:55;100103.50;;;16.47;67.24
44457;BME280;30159;49.316;8.558;2023-03-22T07:44:22;100052.63;;;15.48;71.76
44457;BME280;30159;49.316;8.558;2023-03-22T07:46:49;100105.47;;;14.98;75.86
44457;BME280;30159;49.316;8.558;2023-03-22T07:49:16;100107.66;;;14.47;78.44
44457;BME280;30159;49.316;8.558;2023-03-22T07:51:43;100094.88;;;14.39;79.56
44457;BME280;30159;49.316;8.558;2023-03-22T07:54:10;100106.06;;;14.15;80.83
44457;BME280;30159;49.316;8.558;2023-03-22T07:56:37;100100.81;;;14.19;80.75
44457;BME280;30159;49.316;8.558;2023-03-22T07:59:04;100101.69;;;14.05;82.21
44457;BME280;30159;49.316;8.558;2023-03-22T08:01:31;100111.38;;;14.20;82.64
44457;BME280;30159;49.316;8.558;2023-03-22T08:03:58;100110.25;;;14.21;82.42
44457;BME280;30159;49.316;8.558;2023-03-22T08:06:24;100103.03;;;14.17;81.55
44457;BME280;30159;49.316;8.558;2023-03-22T08:08:51;100099.81;;;14.15;83.05
44457;BME280;30159;49.316;8.558;2023-03-22T08:11:17;100100.78;;;14.41;83.04
44457;BME280;30159;49.316;8.558;2023-03-22T08:13:44;100100.28;;;14.39;82.60
44457;BME280;30159;49.316;8.558;2023-03-22T08:16:12;100099.50;;;14.47;81.63
44457;BME280;30159;49.316;8.558;2023-03-22T08:18:38;100098.50;;;14.57;81.88
44457;BME280;30159;49.316;8.558;2023-03-22T08:21:05;100094.06;;;14.70;81.77
44457;BME280;30159;49.316;8.558;2023-03-22T08:23:32;100099.03;;;14.77;81.65
44457;BME280;30159;49.316;8.558;2023-03-22T08:25:58;100094.72;;;14.84;80.22
44457;BME280;30159;49.316;8.558;2023-03-22T08:28:25;100098.94;;;14.99;79.70
44457;BME280;30159;49.316;8.558;2023-03-22T08:30:51;100098.28;;;14.93;80.12
44457;BME280;30159;49.316;8.558;2023-03-22T08:33:19;100099.44;;;15.01;80.48
44457;BME280;30159;49.316;8.558;2023-03-22T08:35:48;100094.19;;;15.22;79.70
44457;BME280;30159;49.316;8.558;2023-03-22T08:38:15;100098.97;;;15.43;79.64
44457;BME280;30159;49.316;8.558;2023-03-22T08:40:45;100089.56;;;15.49;79.08
44457;BME280;30159;49.316;8.558;2023-03-22T08:43:12;100096.28;;;15.69;77.14
44457;BME280;30159;49.316;8.558;2023-03-22T08:45:38;100097.25;;;15.82;77.06
44457;BME280;30159;49.316;8.558;2023-03-22T08:48:05;100084.38;;;16.08;78.01
44457;BME280;30159;49.316;8.558;2023-03-22T08:50:33;100082.50;;;16.09;75.63
44457;BME280;30159;49.316;8.558;2023-03-22T08:53:00;100094.56;;;16.37;74.47
44457;BME280;30159;49.316;8.558;2023-03-22T08:55:26;100076.63;;;16.75;73.74
44457;BME280;30159;49.316;8.558;2023-03-22T08:57:53;99911.72;;;15.76;73.70
44457;BME280;30159;49.316;8.558;2023-03-22T09:00:23;100081.91;;;16.71;72.88
44457;BME280;30159;49.316;8.558;2023-03-22T09:02:50;100072.75;;;16.76;73.27
44457;BME280;30159;49.316;8.558;2023-03-22T09:05:16;100065.19;;;16.90;72.86
44457;BME280;30159;49.316;8.558;2023-03-22T09:07:44;100063.75;;;16.54;72.65
44457;BME280;30159;49.316;8.558;2023-03-22T09:10:10;100076.06;;;16.60;72.21
44457;BME280;30159;49.316;8.558;2023-03-22T09:12:37;100065.06;;;16.48;72.31
44457;BME280;30159;49.316;8.558;2023-03-22T09:15:07;100047.22;;;16.30;72.94
44457;BME280;30159;49.316;8.558;2023-03-22T09:17:33;100058.97;;;16.51;73.30
44457;BME280;30159;49.316;8.558;2023-03-22T09:20:00;100057.19;;;16.55;72.77
44457;BME280;30159;49.316;8.558;2023-03-22T09:22:27;100049.56;;;16.40;72.98
44457;BME280;30159;49.316;8.558;2023-03-22T09:24:55;100044.31;;;16.35;73.69
44457;BME280;30159;49.316;8.558;2023-03-22T09:27:21;100012.59;;;15.92;73.25
44457;BME280;30159;49.316;8.558;2023-03-22T09:29:48;100048.19;;;16.25;72.71
44457;BME280;30159;49.316;8.558;2023-03-22T09:32:15;99993.22;;;15.93;73.58
44457;BME280;30159;49.316;8.558;2023-03-22T09:34:41;100043.44;;;16.43;73.80
44457;BME280;30159;49.316;8.558;2023-03-22T09:37:08;100037.75;;;16.65;73.08
44457;BME280;30159;49.316;8.558;2023-03-22T09:39:37;100036.28;;;16.98;71.64
44457;BME280;30159;49.316;8.558;2023-03-22T09:42:19;100038.97;;;17.06;70.57
44457;BME280;30159;49.316;8.558;2023-03-22T09:44:47;100037.28;;;16.93;70.11
44457;BME280;30159;49.316;8.558;2023-03-22T09:47:17;100026.66;;;16.71;70.41
44457;BME280;30159;49.316;8.558;2023-03-22T09:49:47;100036.41;;;17.01;70.93
44457;BME280;30159;49.316;8.558;2023-03-22T09:52:16;100030.59;;;17.33;70.19
44457;BME280;30159;49.316;8.558;2023-03-22T09:54:45;100030.91;;;17.31;68.97
44457;BME280;30159;49.316;8.558;2023-03-22T09:57:21;99976.09;;;17.12;68.83
44457;BME280;30159;49.316;8.558;2023-03-22T09:59:57;100033.22;;;17.62;68.19
44457;BME280;30159;49.316;8.558;2023-03-22T10:02:37;100034.25;;;17.70;68.16
44457;BME280;30159;49.316;8.558;2023-03-22T10:05:13;100028.53;;;17.84;67.84
44457;BME280;30159;49.316;8.558;2023-03-22T10:07:59;100020.63;;;17.70;67.26
44457;BME280;30159;49.316;8.558;2023-03-22T10:10:30;100024.72;;;17.76;67.35
44457;BME280;30159;49.316;8.558;2023-03-22T10:13:02;100018.88;;;17.86;67.21
44457;BME280;30159;49.316;8.558;2023-03-22T10:15:34;100023.34;;;17.70;66.76
44457;BME280;30159;49.316;8.558;2023-03-22T10:18:05;100018.03;;;17.53;67.82
44457;BME280;30159;49.316;8.558;2023-03-22T10:20:36;100015.00;;;17.66;68.05
44457;BME280;30159;49.316;8.558;2023-03-22T10:23:08;100007.25;;;17.89;67.01
44457;BME280;30159;49.316;8.558;2023-03-22T10:25:39;100007.22;;;17.77;67.14
44457;BME280;30159;49.316;8.558;2023-03-22T10:28:14;100010.00;;;17.56;67.91
44457;BME280;30159;49.316;8.558;2023-03-22T10:30:41;100006.41;;;17.43;67.89
44457;BME280;30159;49.316;8.558;2023-03-22T10:33:13;100005.56;;;17.64;67.52
44457;BME280;30159;49.316;8.558;2023-03-22T10:35:43;100000.44;;;17.83;67.44
44457;BME280;30159;49.316;8.558;2023-03-22T10:38:18;99990.25;;;18.05;67.66
44457;BME280;30159;49.316;8.558;2023-03-22T10:40:48;99991.50;;;18.07;66.47
44457;BME280;30159;49.316;8.558;2023-03-22T10:43:20;100001.72;;;18.10;66.56
44457;BME280;30159;49.316;8.558;2023-03-22T10:45:50;99975.78;;;17.92;65.22
44457;BME280;30159;49.316;8.558;2023-03-22T10:48:25;99990.91;;;17.89;66.21
44457;BME280;30159;49.316;8.558;2023-03-22T10:50:53;99995.16;;;17.78;66.68
44457;BME280;30159;49.316;8.558;2023-03-22T10:53:27;99994.34;;;17.65;66.77
44457;BME280;30159;49.316;8.558;2023-03-22T10:55:56;99942.25;;;17.46;66.56
44457;BME280;30159;49.316;8.558;2023-03-22T10:58:28;99988.84;;;17.86;66.01
44457;BME280;30159;49.316;8.558;2023-03-22T11:00:56;99988.22;;;18.14;66.15
44457;BME280;30159;49.316;8.558;2023-03-22T11:03:29;99993.75;;;18.05;64.81
44457;BME280;30159;49.316;8.558;2023-03-22T11:06:01;99985.03;;;18.12;66.29
44457;BME280;30159;49.316;8.558;2023-03-22T11:08:37;99942.00;;;17.84;64.79
44457;BME280;30159;49.316;8.558;2023-03-22T11:11:05;99974.44;;;17.98;64.77
44457;BME280;30159;49.316;8.558;2023-03-22T11:13:34;99973.97;;;18.08;64.55
44457;BME280;30159;49.316;8.558;2023-03-22T11:16:01;99981.59;;;18.27;64.81
44457;BME280;30159;49.316;8.558;2023-03-22T11:18:29;99972.28;;;18.41;63.67
44457;BME280;30159;49.316;8.558;2023-03-22T11:20:58;99969.88;;;18.51;64.03
44457;BME280;30159;49.316;8.558;2023-03-22T11:23:26;99981.03;;;18.34;63.74
44457;BME280;30159;49.316;8.558;2023-03-22T11:25:58;99968.53;;;18.33;64.54
44457;BME280;30159;49.316;8.558;2023-03-22T11:28:28;99966.13;;;18.31;63.87
44457;BME280;30159;49.316;8.558;2023-03-22T11:31:03;99965.09;;;18.36;62.12
44457;BME280;30159;49.316;8.558;2023-03-22T11:33:30;99954.41;;;18.31;63.82
44457;BME280;30159;49.316;8.558;2023-03-22T11:35:59;99962.63;;;18.19;64.14
44457;BME280;30159;49.316;8.558;2023-03-22T11:38:28;99961.81;;;18.18;63.85
44457;BME280;30159;49.316;8.558;2023-03-22T11:40:58;99951.47;;;18.24;64.29
44457;BME280;30159;49.316;8.558;2023-03-22T11:43:29;99957.25;;;18.22;64.54
44457;BME280;30159;49.316;8.558;2023-03-22T11:45:57;99947.16;;;18.23;65.35
44457;BME280;30159;49.316;8.558;2023-03-22T11:48:28;99946.78;;;18.24;63.20
44457;BME280;30159;49.316;8.558;2023-03-22T11:51:03;99942.13;;;18.37;63.66
44457;BME280;30159;49.316;8.558;2023-03-22T11:53:33;99943.34;;;18.52;63.68
44457;BME280;30159;49.316;8.558;2023-03-22T11:56:01;99945.09;;;18.44;63.45
44457;BME280;30159;49.316;8.558;2023-03-22T11:58:46;99936.31;;;18.51;63.55
44457;BME280;30159;49.316;8.558;2023-03-22T12:01:17;99934.91;;;18.57;63.89
44457;BME280;30159;49.316;8.558;2023-03-22T12:03:51;99937.03;;;18.76;63.85
44457;BME280;30159;49.316;8.558;2023-03-22T12:06:23;99934.69;;;18.62;62.73
44457;BME280;30159;49.316;8.558;2023-03-22T12:08:54;99921.25;;;18.69;60.79
44457;BME280;30159;49.316;8.558;2023-03-22T12:11:26;99926.25;;;18.67;61.66
44457;BME280;30159;49.316;8.558;2023-03-22T12:13:56;99928.09;;;18.63;60.72
44457;BME280;30159;49.316;8.558;2023-03-22T12:16:27;99910.00;;;18.59;60.30
44457;BME280;30159;49.316;8.558;2023-03-22T12:19:04;99901.47;;;18.60;61.53
44457;BME280;30159;49.316;8.558;2023-03-22T12:21:32;99916.81;;;18.65;60.78
44457;BME280;30159;49.316;8.558;2023-03-22T12:24:01;99907.16;;;18.55;60.32
44457;BME280;30159;49.316;8.558;2023-03-22T12:26:29;99861.34;;;18.36;61.60
44457;BME280;30159;49.316;8.558;2023-03-22T12:29:03;99900.97;;;18.70;60.42
44457;BME280;30159;49.316;8.558;2023-03-22T12:31:32;99890.41;;;18.81;60.10
44457;BME280;30159;49.316;8.558;2023-03-22T12:34:05;99888.22;;;18.74;59.21
44457;BME280;30159;49.316;8.558;2023-03-22T12:36:36;99880.63;;;18.68;59.33
44457;BME280;30159;49.316;8.558;2023-03-22T12:39:07;99875.47;;;18.79;59.49
44457;BME280;30159;49.316;8.558;2023-03-22T12:41:36;99879.53;;;18.85;60.68
44457;BME280;30159;49.316;8.558;2023-03-22T12:44:09;99875.19;;;18.96;60.38
44457;BME280;30159;49.316;8.558;2023-03-22T12:46:43;99873.03;;;19.17;60.70
44457;BME280;30159;49.316;8.558;2023-03-22T12:49:19;99870.47;;;19.25;59.88
44457;BME280;30159;49.316;8.558;2023-03-22T12:51:50;99869.56;;;19.21;59.43
44457;BME280;30159;49.316;8.558;2023-03-22T12:54:23;99861.44;;;19.08;59.49
44457;BME280;30159;49.316;8.558;2023-03-22T12:56:51;99855.00;;;19.01;60.23
44457;BME280;30159;49.316;8.558;2023-03-22T12:59:21;99829.84;;;18.95;59.30
44457;BME280;30159;49.316;8.558;2023-03-22T13:01:52;99852.31;;;19.16;59.11